createdAt,value
2019-05-14T00:00:05.207Z,1023.55
2019-05-14T00:01:05.193Z,1023.55
2019-05-14T00:02:05.185Z,1023.51
2019-05-14T00:03:05.172Z,1023.52
2019-05-14T00:04:05.179Z,1023.52
2019-05-14T00:05:05.150Z,1023.54
2019-05-14T00:06:05.136Z,1023.56
2019-05-14T00:07:05.129Z,1023.50
2019-05-14T00:08:05.112Z,1023.49
2019-05-14T00:09:05.123Z,1023.49
2019-05-14T00:10:05.090Z,1023.45
2019-05-14T00:11:05.080Z,1023.47
2019-05-14T00:12:05.073Z,1023.47
2019-05-14T00:13:05.059Z,1023.46
2019-05-14T00:14:05.064Z,1023.52
2019-05-14T00:15:05.033Z,1023.44
2019-05-14T00:16:05.047Z,1023.42
2019-05-14T00:17:05.009Z,1023.48
2019-05-14T00:18:05.023Z,1023.46
2019-05-14T00:19:05.008Z,1023.35
2019-05-14T00:20:09.698Z,1023.35
2019-05-14T00:21:05.962Z,1023.38
2019-05-14T00:22:04.954Z,1023.34
2019-05-14T00:23:04.943Z,1023.38
2019-05-14T00:24:04.949Z,1023.31
2019-05-14T00:25:04.919Z,1023.30
2019-05-14T00:26:04.916Z,1023.28
2019-05-14T00:27:04.900Z,1023.30
2019-05-14T00:28:04.889Z,1023.33
2019-05-14T00:29:04.891Z,1023.27
2019-05-14T00:30:04.861Z,1023.28
2019-05-14T00:31:04.851Z,1023.26
2019-05-14T00:32:04.838Z,1023.29
2019-05-14T00:33:04.827Z,1023.26
2019-05-14T00:34:04.861Z,1023.26
2019-05-14T00:35:04.806Z,1023.33
2019-05-14T00:36:04.794Z,1023.31
2019-05-14T00:37:04.781Z,1023.25
2019-05-14T00:38:04.773Z,1023.33
2019-05-14T00:39:04.760Z,1023.31
2019-05-14T00:40:04.767Z,1023.30
2019-05-14T00:41:04.735Z,1023.34
2019-05-14T00:42:04.724Z,1023.41
2019-05-14T00:43:04.714Z,1023.38
2019-05-14T00:44:04.701Z,1023.35
2019-05-14T00:45:04.711Z,1023.38
2019-05-14T00:46:04.679Z,1023.47
2019-05-14T00:47:04.668Z,1023.33
2019-05-14T00:48:04.659Z,1023.51
2019-05-14T00:49:04.645Z,1023.53
2019-05-14T00:50:04.653Z,1023.52
2019-05-14T00:51:04.623Z,1023.54
2019-05-14T00:52:04.614Z,1023.48
2019-05-14T00:53:04.598Z,1023.53
2019-05-14T00:54:04.587Z,1023.55
2019-05-14T00:55:04.596Z,1023.50
2019-05-14T00:56:04.563Z,1023.50
2019-05-14T00:57:04.553Z,1023.52
2019-05-14T00:58:04.539Z,1023.51
2019-05-14T00:59:04.529Z,1023.53
2019-05-14T01:00:04.520Z,1023.49
2019-05-14T01:01:04.522Z,1023.47
2019-05-14T01:02:04.496Z,1023.49
2019-05-14T01:03:04.483Z,1023.44
2019-05-14T01:04:04.472Z,1023.39
2019-05-14T01:05:04.461Z,1023.34
2019-05-14T01:06:04.468Z,1023.35
2019-05-14T01:07:04.439Z,1023.34
2019-05-14T01:08:04.430Z,1023.32
2019-05-14T01:09:04.421Z,1023.34
2019-05-14T01:10:04.402Z,1023.39
2019-05-14T01:11:04.411Z,1023.30
2019-05-14T01:12:04.380Z,1023.35
2019-05-14T01:13:04.370Z,1023.34
2019-05-14T01:14:04.357Z,1023.32
2019-05-14T01:15:10.589Z,1023.37
2019-05-14T01:16:05.351Z,1023.39
2019-05-14T01:17:04.323Z,1023.36
2019-05-14T01:18:04.314Z,1023.39
2019-05-14T01:19:04.299Z,1023.31
2019-05-14T01:20:04.289Z,1023.34
2019-05-14T01:21:04.296Z,1023.33
2019-05-14T01:22:04.267Z,1023.27
2019-05-14T01:23:04.253Z,1023.21
2019-05-14T01:24:04.242Z,1023.31
2019-05-14T01:25:04.232Z,1023.25
2019-05-14T01:26:04.237Z,1023.21
2019-05-14T01:27:04.206Z,1023.27
2019-05-14T01:28:04.196Z,1023.28
2019-05-14T01:29:04.184Z,1023.24
2019-05-14T01:30:04.172Z,1023.24
2019-05-14T01:31:04.181Z,1023.25
2019-05-14T01:32:04.148Z,1023.24
2019-05-14T01:33:04.139Z,1023.21
2019-05-14T01:34:04.126Z,1023.20
2019-05-14T01:35:04.116Z,1023.14
2019-05-14T01:36:04.122Z,1023.12
2019-05-14T01:37:04.121Z,1023.14
2019-05-14T01:38:04.083Z,1023.16
2019-05-14T01:39:04.070Z,1023.10
2019-05-14T01:40:04.060Z,1023.11
2019-05-14T01:41:04.069Z,1023.09
2019-05-14T01:42:04.035Z,1023.05
2019-05-14T01:43:04.026Z,1023.03
2019-05-14T01:44:04.012Z,1023.09
2019-05-14T01:45:04.000Z,1023.09
2019-05-14T01:46:03.987Z,1023.05
2019-05-14T01:47:03.997Z,1023.09
2019-05-14T01:48:03.966Z,1023.01
2019-05-14T01:49:03.954Z,1023.00
2019-05-14T01:50:03.945Z,1023.05
2019-05-14T01:51:03.933Z,1023.02
2019-05-14T01:52:03.938Z,1023.10
2019-05-14T01:53:03.909Z,1023.08
2019-05-14T01:54:03.898Z,1023.10
2019-05-14T01:55:03.885Z,1022.98
2019-05-14T01:56:03.876Z,1022.96
2019-05-14T01:57:03.883Z,1022.99
2019-05-14T01:58:03.852Z,1022.91
2019-05-14T01:59:03.839Z,1022.90
2019-05-14T02:00:03.827Z,1022.92
2019-05-14T02:01:03.816Z,1022.88
2019-05-14T02:02:03.846Z,1022.86
2019-05-14T02:03:03.792Z,1022.76
2019-05-14T02:04:03.782Z,1022.82
2019-05-14T02:05:03.772Z,1022.82
2019-05-14T02:06:03.759Z,1022.77
2019-05-14T02:07:03.750Z,1022.80
2019-05-14T02:08:03.756Z,1022.75
2019-05-14T02:09:03.726Z,1022.71
2019-05-14T02:10:03.715Z,1022.73
2019-05-14T02:11:03.702Z,1022.72
2019-05-14T02:12:03.690Z,1022.76
2019-05-14T02:13:03.700Z,1022.78
2019-05-14T02:14:03.668Z,1022.86
2019-05-14T02:15:03.655Z,1022.79
2019-05-14T02:16:03.651Z,1022.78
2019-05-14T02:17:03.632Z,1022.73
2019-05-14T02:18:03.642Z,1022.80
2019-05-14T02:19:03.609Z,1022.79
2019-05-14T02:20:03.605Z,1022.75
2019-05-14T02:21:03.593Z,1022.80
2019-05-14T02:22:03.578Z,1022.78
2019-05-14T02:23:03.583Z,1022.80
2019-05-14T02:24:03.554Z,1022.77
2019-05-14T02:25:03.541Z,1022.82
2019-05-14T02:26:03.531Z,1022.77
2019-05-14T02:27:03.521Z,1022.68
2019-05-14T02:28:03.530Z,1022.76
2019-05-14T02:29:03.499Z,1022.73
2019-05-14T02:30:03.485Z,1022.70
2019-05-14T02:31:04.170Z,1022.73
2019-05-14T02:32:03.464Z,1022.66
2019-05-14T02:33:03.453Z,1022.67
2019-05-14T02:34:03.459Z,1022.61
2019-05-14T02:35:03.429Z,1022.64
2019-05-14T02:36:03.415Z,1022.60
2019-05-14T02:37:03.408Z,1022.56
2019-05-14T02:38:03.396Z,1022.55
2019-05-14T02:39:03.409Z,1022.63
2019-05-14T02:40:03.375Z,1022.55
2019-05-14T02:41:03.364Z,1022.64
2019-05-14T02:42:03.350Z,1022.59
2019-05-14T02:43:03.339Z,1022.59
2019-05-14T02:44:03.356Z,1022.58
2019-05-14T02:45:03.323Z,1022.57
2019-05-14T02:46:11.913Z,1022.58
2019-05-14T02:47:04.288Z,1022.53
2019-05-14T02:48:03.281Z,1022.62
2019-05-14T02:49:03.286Z,1022.61
2019-05-14T02:50:03.256Z,1022.62
2019-05-14T02:51:03.246Z,1022.57
2019-05-14T02:52:03.234Z,1022.59
2019-05-14T02:53:03.224Z,1022.57
2019-05-14T02:54:03.228Z,1022.58
2019-05-14T02:55:03.204Z,1022.57
2019-05-14T02:56:03.192Z,1022.56
2019-05-14T02:57:03.195Z,1022.59
2019-05-14T02:58:03.167Z,1022.52
2019-05-14T02:59:05.838Z,1022.58
2019-05-14T03:00:03.144Z,1022.59
2019-05-14T03:01:03.132Z,1022.62
2019-05-14T03:02:03.128Z,1022.56
2019-05-14T03:03:03.108Z,1022.61
2019-05-14T03:04:03.116Z,1022.58
2019-05-14T03:05:03.084Z,1022.60
2019-05-14T03:06:03.075Z,1022.58
2019-05-14T03:07:03.072Z,1022.55
2019-05-14T03:08:03.049Z,1022.59
2019-05-14T03:09:03.061Z,1022.54
2019-05-14T03:10:03.029Z,1022.61
2019-05-14T03:11:03.025Z,1022.61
2019-05-14T03:12:03.010Z,1022.66
2019-05-14T03:13:03.010Z,1022.69
2019-05-14T03:14:03.103Z,1022.62
2019-05-14T03:15:02.974Z,1022.65
2019-05-14T03:16:21.098Z,1022.72
2019-05-14T03:17:03.946Z,1022.71
2019-05-14T03:18:02.939Z,1022.70
2019-05-14T03:19:02.929Z,1022.74
2019-05-14T03:20:02.946Z,1022.74
2019-05-14T03:21:02.903Z,1022.73
2019-05-14T03:22:02.897Z,1022.76
2019-05-14T03:23:08.622Z,1022.82
2019-05-14T03:24:03.870Z,1022.70
2019-05-14T03:25:02.875Z,1022.73
2019-05-14T03:26:02.848Z,1022.77
2019-05-14T03:27:02.844Z,1022.71
2019-05-14T03:28:02.825Z,1022.74
2019-05-14T03:29:02.813Z,1022.75
2019-05-14T03:30:02.827Z,1022.75
2019-05-14T03:31:04.129Z,1022.74
2019-05-14T03:32:03.934Z,1022.71
2019-05-14T03:33:03.553Z,1022.81
2019-05-14T03:34:03.891Z,1022.74
2019-05-14T03:35:04.342Z,1022.69
2019-05-14T03:36:09.284Z,1022.67
2019-05-14T03:37:04.345Z,1022.71
2019-05-14T03:38:02.710Z,1022.67
2019-05-14T03:39:02.695Z,1022.64
2019-05-14T03:40:02.711Z,1022.69
2019-05-14T03:41:02.676Z,1022.64
2019-05-14T03:42:02.668Z,1022.60
2019-05-14T03:43:02.651Z,1022.58
2019-05-14T03:44:02.640Z,1022.50
2019-05-14T03:45:02.631Z,1022.64
2019-05-14T03:46:02.635Z,1022.66
2019-05-14T03:47:05.414Z,1022.59
2019-05-14T03:48:02.591Z,1022.56
2019-05-14T03:49:02.579Z,1022.55
2019-05-14T03:50:02.575Z,1022.60
2019-05-14T03:51:02.577Z,1022.66
2019-05-14T03:52:02.547Z,1022.59
2019-05-14T03:53:02.535Z,1022.69
2019-05-14T03:54:07.499Z,1022.67
2019-05-14T03:55:04.757Z,1022.72
2019-05-14T03:56:02.524Z,1022.67
2019-05-14T03:57:02.498Z,1022.63
2019-05-14T03:58:02.482Z,1022.63
2019-05-14T03:59:02.533Z,1022.55
2019-05-14T04:00:02.461Z,1022.64
2019-05-14T04:01:02.462Z,1022.62
2019-05-14T04:02:02.430Z,1022.64
2019-05-14T04:03:02.419Z,1022.63
2019-05-14T04:04:02.411Z,1022.58
2019-05-14T04:05:02.396Z,1022.60
2019-05-14T04:06:02.557Z,1022.60
2019-05-14T04:07:02.384Z,1022.57
2019-05-14T04:08:02.365Z,1022.59
2019-05-14T04:09:02.354Z,1022.59
2019-05-14T04:10:02.341Z,1022.58
2019-05-14T04:11:02.357Z,1022.59
2019-05-14T04:12:02.327Z,1022.57
2019-05-14T04:13:02.342Z,1022.52
2019-05-14T04:14:02.291Z,1022.57
2019-05-14T04:15:02.286Z,1022.61
2019-05-14T04:16:02.306Z,1022.61
2019-05-14T04:17:09.558Z,1022.61
2019-05-14T04:18:03.253Z,1022.54
2019-05-14T04:19:02.235Z,1022.58
2019-05-14T04:20:02.228Z,1022.56
2019-05-14T04:21:02.212Z,1022.60
2019-05-14T04:22:02.219Z,1022.54
2019-05-14T04:23:02.198Z,1022.54
2019-05-14T04:24:02.179Z,1022.51
2019-05-14T04:25:02.191Z,1022.54
2019-05-14T04:26:02.156Z,1022.48
2019-05-14T04:27:07.703Z,1022.54
2019-05-14T04:28:03.132Z,1022.54
2019-05-14T04:29:02.133Z,1022.57
2019-05-14T04:30:02.112Z,1022.55
2019-05-14T04:31:02.101Z,1022.58
2019-05-14T04:32:02.107Z,1022.58
2019-05-14T04:33:02.079Z,1022.59
2019-05-14T04:34:02.066Z,1022.63
2019-05-14T04:35:02.053Z,1022.59
2019-05-14T04:36:02.057Z,1022.61
2019-05-14T04:37:02.053Z,1022.54
2019-05-14T04:38:02.019Z,1022.61
2019-05-14T04:39:02.010Z,1022.55
2019-05-14T04:40:02.003Z,1022.56
2019-05-14T04:41:01.983Z,1022.50
2019-05-14T04:42:01.992Z,1022.50
2019-05-14T04:43:01.962Z,1022.54
2019-05-14T04:44:01.957Z,1022.49
2019-05-14T04:45:05.443Z,1022.53
2019-05-14T04:46:01.927Z,1022.43
2019-05-14T04:47:21.473Z,1022.44
2019-05-14T04:48:22.606Z,1022.43
2019-05-14T04:49:02.892Z,1022.50
2019-05-14T04:50:01.882Z,1022.51
2019-05-14T04:51:01.870Z,1022.57
2019-05-14T04:52:01.878Z,1022.49
2019-05-14T04:53:01.848Z,1022.41
2019-05-14T04:54:01.843Z,1022.45
2019-05-14T04:55:01.827Z,1022.47
2019-05-14T04:56:01.813Z,1022.52
2019-05-14T04:57:01.827Z,1022.44
2019-05-14T04:58:01.790Z,1022.41
2019-05-14T04:59:01.777Z,1022.34
2019-05-14T05:00:01.789Z,1022.31
2019-05-14T05:01:01.755Z,1022.35
2019-05-14T05:02:01.769Z,1022.37
2019-05-14T05:03:01.737Z,1022.40
2019-05-14T05:04:01.720Z,1022.38
2019-05-14T05:05:01.711Z,1022.41
2019-05-14T05:06:01.698Z,1022.40
2019-05-14T05:07:01.711Z,1022.46
2019-05-14T05:08:09.149Z,1022.43
2019-05-14T05:09:01.666Z,1022.45
2019-05-14T05:10:01.654Z,1022.42
2019-05-14T05:11:01.643Z,1022.49
2019-05-14T05:12:01.633Z,1022.49
2019-05-14T05:13:01.636Z,1022.50
2019-05-14T05:14:01.606Z,1022.47
2019-05-14T05:15:01.596Z,1022.46
2019-05-14T05:16:01.583Z,1022.52
2019-05-14T05:17:01.572Z,1022.47
2019-05-14T05:18:01.579Z,1022.40
2019-05-14T05:19:01.547Z,1022.43
2019-05-14T05:20:01.537Z,1022.42
2019-05-14T05:21:01.527Z,1022.42
2019-05-14T05:22:01.515Z,1022.40
2019-05-14T05:23:01.522Z,1022.49
2019-05-14T05:24:01.490Z,1022.47
2019-05-14T05:25:01.480Z,1022.41
2019-05-14T05:26:01.466Z,1022.41
2019-05-14T05:27:01.458Z,1022.42
2019-05-14T05:28:01.468Z,1022.33
2019-05-14T05:29:06.557Z,1022.34
2019-05-14T05:30:02.424Z,1022.36
2019-05-14T05:31:01.413Z,1022.34
2019-05-14T05:32:01.398Z,1022.38
2019-05-14T05:33:01.388Z,1022.39
2019-05-14T05:34:01.399Z,1022.39
2019-05-14T05:35:01.368Z,1022.37
2019-05-14T05:36:01.378Z,1022.34
2019-05-14T05:37:01.342Z,1022.36
2019-05-14T05:38:01.334Z,1022.35
2019-05-14T05:39:01.339Z,1022.38
2019-05-14T05:40:01.310Z,1022.33
2019-05-14T05:41:01.299Z,1022.23
2019-05-14T05:42:01.288Z,1022.30
2019-05-14T05:43:01.275Z,1022.28
2019-05-14T05:44:01.285Z,1022.31
2019-05-14T05:45:01.255Z,1022.25
2019-05-14T05:46:01.244Z,1022.28
2019-05-14T05:47:01.233Z,1022.32
2019-05-14T05:48:01.918Z,1022.26
2019-05-14T05:49:01.228Z,1022.24
2019-05-14T05:50:01.195Z,1022.22
2019-05-14T05:51:01.183Z,1022.22
2019-05-14T05:52:01.172Z,1022.25
2019-05-14T05:53:01.164Z,1022.26
2019-05-14T05:54:01.194Z,1022.18
2019-05-14T05:55:01.142Z,1022.22
2019-05-14T05:56:01.129Z,1022.19
2019-05-14T05:57:01.116Z,1022.16
2019-05-14T05:58:01.104Z,1022.20
2019-05-14T05:59:01.124Z,1022.26
2019-05-14T06:00:01.087Z,1022.26
2019-05-14T06:01:01.071Z,1022.23
2019-05-14T06:02:01.061Z,1022.25
2019-05-14T06:03:01.051Z,1022.29
2019-05-14T06:04:01.038Z,1022.18
2019-05-14T06:05:01.043Z,1022.21
2019-05-14T06:06:01.017Z,1022.21
2019-05-14T06:07:02.768Z,1022.23
2019-05-14T06:08:00.990Z,1022.32
2019-05-14T06:09:00.980Z,1022.34
2019-05-14T06:10:00.987Z,1022.19
2019-05-14T06:11:00.954Z,1022.16
2019-05-14T06:12:00.943Z,1022.26
2019-05-14T06:13:00.938Z,1022.27
2019-05-14T06:14:00.959Z,1022.23
2019-05-14T06:15:00.928Z,1022.27
2019-05-14T06:16:00.897Z,1022.32
2019-05-14T06:17:00.886Z,1022.18
2019-05-14T06:18:14.043Z,1022.17
2019-05-14T06:19:01.861Z,1022.27
2019-05-14T06:20:00.876Z,1022.28
2019-05-14T06:21:00.840Z,1022.43
2019-05-14T06:22:04.074Z,1022.51
2019-05-14T06:23:00.819Z,1022.56
2019-05-14T06:24:02.891Z,1022.59
2019-05-14T06:25:00.821Z,1022.55
2019-05-14T06:26:00.784Z,1022.63
2019-05-14T06:27:00.770Z,1022.56
2019-05-14T06:28:00.759Z,1022.65
2019-05-14T06:29:00.746Z,1022.68
2019-05-14T06:30:00.737Z,1022.64
2019-05-14T06:31:00.744Z,1022.54
2019-05-14T06:32:00.713Z,1022.68
2019-05-14T06:33:00.703Z,1022.60
2019-05-14T06:34:00.688Z,1022.58
2019-05-14T06:35:00.678Z,1022.65
2019-05-14T06:36:00.685Z,1022.63
2019-05-14T06:37:00.655Z,1022.59
2019-05-14T06:38:00.649Z,1022.28
2019-05-14T06:39:00.633Z,1022.54
2019-05-14T06:40:00.621Z,1022.57
2019-05-14T06:41:00.628Z,1022.44
2019-05-14T06:42:00.594Z,1022.61
2019-05-14T06:43:00.588Z,1022.61
2019-05-14T06:44:00.574Z,1022.60
2019-05-14T06:45:00.563Z,1022.69
2019-05-14T06:46:00.570Z,1022.66
2019-05-14T06:47:00.538Z,1022.69
2019-05-14T06:48:00.530Z,1022.66
2019-05-14T06:49:00.516Z,1022.66
2019-05-14T06:50:00.506Z,1022.69
2019-05-14T06:51:00.512Z,1022.71
2019-05-14T06:52:00.483Z,1022.65
2019-05-14T06:53:00.470Z,1022.69
2019-05-14T06:54:00.458Z,1022.62
2019-05-14T06:55:00.448Z,1022.67
2019-05-14T06:56:00.453Z,1022.71
2019-05-14T06:57:00.423Z,1022.77
2019-05-14T06:58:00.413Z,1022.71
2019-05-14T06:59:00.401Z,1022.72
2019-05-14T07:00:00.391Z,1022.66
2019-05-14T07:01:00.402Z,1022.65
2019-05-14T07:02:00.369Z,1022.57
2019-05-14T07:03:00.357Z,1022.66
2019-05-14T07:04:00.345Z,1022.67
2019-05-14T07:05:00.334Z,1022.64
2019-05-14T07:06:00.325Z,1022.70
2019-05-14T07:07:00.332Z,1022.76
2019-05-14T07:08:00.300Z,1022.64
2019-05-14T07:09:00.295Z,1022.69
2019-05-14T07:10:00.277Z,1022.68
2019-05-14T07:11:00.269Z,1022.62
2019-05-14T07:12:00.279Z,1022.64
2019-05-14T07:13:00.244Z,1022.62
2019-05-14T07:14:00.236Z,1022.69
2019-05-14T07:15:00.224Z,1022.60
2019-05-14T07:16:00.210Z,1022.59
2019-05-14T07:17:00.227Z,1022.59
2019-05-14T07:18:00.191Z,1022.63
2019-05-14T07:19:00.178Z,1022.56
2019-05-14T07:20:00.165Z,1022.53
2019-05-14T07:21:00.152Z,1022.54
2019-05-14T07:22:00.168Z,1022.57
2019-05-14T07:23:00.129Z,1022.63
2019-05-14T07:24:00.128Z,1022.71
2019-05-14T07:25:00.111Z,1022.73
2019-05-14T07:26:00.099Z,1022.71
2019-05-14T07:27:00.104Z,1022.77
2019-05-14T07:28:00.079Z,1022.77
2019-05-14T07:29:00.067Z,1022.86
2019-05-14T07:30:00.053Z,1022.92
2019-05-14T07:31:00.054Z,1022.95
2019-05-14T07:32:00.058Z,1022.97
2019-05-14T07:33:00.032Z,1023.00
2019-05-14T07:34:00.010Z,1022.95
2019-05-14T07:35:00.021Z,1023.06
2019-05-14T07:35:59.990Z,1023.07
2019-05-14T07:36:59.975Z,1022.99
2019-05-14T07:37:59.981Z,1022.93
2019-05-14T07:39:00.386Z,1022.82
2019-05-14T07:39:59.944Z,1022.74
2019-05-14T07:40:59.931Z,1022.88
2019-05-14T07:41:59.918Z,1022.91
2019-05-14T07:42:59.937Z,1022.88
2019-05-14T07:43:59.899Z,1022.88
2019-05-14T07:44:59.889Z,1022.85
2019-05-14T07:45:59.877Z,1022.70
2019-05-14T07:46:59.866Z,1022.73
2019-05-14T07:47:59.873Z,1022.80
2019-05-14T07:49:08.160Z,1022.59
2019-05-14T07:50:00.831Z,1022.86
2019-05-14T07:51:00.226Z,1022.86
2019-05-14T07:51:59.814Z,1022.79
2019-05-14T07:53:03.044Z,1022.80
2019-05-14T07:53:59.789Z,1022.83
2019-05-14T07:54:59.777Z,1022.84
2019-05-14T07:55:59.767Z,1022.87
2019-05-14T07:56:59.755Z,1022.88
2019-05-14T07:57:59.759Z,1022.87
2019-05-14T07:59:02.087Z,1022.99
2019-05-14T07:59:59.723Z,1022.97
2019-05-14T08:00:59.723Z,1022.84
2019-05-14T08:01:59.703Z,1022.81
2019-05-14T08:02:59.690Z,1022.89
2019-05-14T08:04:00.254Z,1022.86
2019-05-14T08:04:59.671Z,1022.99
2019-05-14T08:05:59.660Z,1022.95
2019-05-14T08:06:59.652Z,1022.95
2019-05-14T08:07:59.637Z,1022.92
2019-05-14T08:08:59.649Z,1022.95
2019-05-14T08:09:59.615Z,1022.83
2019-05-14T08:10:59.605Z,1022.88
2019-05-14T08:11:59.595Z,1022.87
2019-05-14T08:12:59.587Z,1022.90
2019-05-14T08:13:59.592Z,1022.84
2019-05-14T08:15:14.149Z,1022.87
2019-05-14T08:16:00.552Z,1022.84
2019-05-14T08:16:59.706Z,1022.85
2019-05-14T08:17:59.535Z,1022.81
2019-05-14T08:19:00.092Z,1022.82
2019-05-14T08:19:59.515Z,1022.84
2019-05-14T08:20:59.544Z,1022.86
2019-05-14T08:21:59.492Z,1022.86
2019-05-14T08:22:59.480Z,1022.77
2019-05-14T08:23:59.501Z,1022.82
2019-05-14T08:24:59.458Z,1022.76
2019-05-14T08:26:03.590Z,1022.82
2019-05-14T08:27:00.437Z,1022.75
2019-05-14T08:27:59.426Z,1022.67
2019-05-14T08:28:59.435Z,1022.80
2019-05-14T08:29:59.407Z,1022.81
2019-05-14T08:30:59.395Z,1022.86
2019-05-14T08:31:59.385Z,1022.86
2019-05-14T08:32:59.376Z,1022.92
2019-05-14T08:33:59.390Z,1022.95
2019-05-14T08:34:59.355Z,1022.88
2019-05-14T08:35:59.345Z,1022.84
2019-05-14T08:37:03.976Z,1022.91
2019-05-14T08:38:08.179Z,1022.92
2019-05-14T08:39:00.340Z,1022.91
2019-05-14T08:39:59.306Z,1022.73
2019-05-14T08:40:59.297Z,1022.79
2019-05-14T08:42:03.853Z,1022.84
2019-05-14T08:43:00.281Z,1022.83
2019-05-14T08:43:59.653Z,1022.83
2019-05-14T08:44:59.443Z,1022.87
2019-05-14T08:45:59.247Z,1022.38
2019-05-14T08:46:59.307Z,1022.77
2019-05-14T08:47:59.228Z,1022.82
2019-05-14T08:48:59.216Z,1022.80
2019-05-14T08:50:00.050Z,1022.69
2019-05-14T08:50:59.211Z,1022.60
2019-05-14T08:51:59.672Z,1022.75
2019-05-14T08:52:59.176Z,1022.82
2019-05-14T08:53:59.379Z,1022.73
2019-05-14T08:55:09.156Z,1022.78
2019-05-14T08:56:00.148Z,1022.76
2019-05-14T08:56:59.139Z,1022.66
2019-05-14T08:57:59.512Z,1022.64
2019-05-14T08:58:59.209Z,1022.57
2019-05-14T08:59:59.484Z,1022.54
2019-05-14T09:00:59.096Z,1022.54
2019-05-14T09:02:06.353Z,1022.51
2019-05-14T09:03:03.072Z,1022.45
2019-05-14T09:03:59.704Z,1022.41
2019-05-14T09:05:04.191Z,1022.37
2019-05-14T09:06:00.833Z,1022.41
2019-05-14T09:06:59.034Z,1022.32
2019-05-14T09:07:59.025Z,1022.12
2019-05-14T09:08:59.696Z,1022.23
2019-05-14T09:10:00.106Z,1022.35
2019-05-14T09:10:59.296Z,1022.30
2019-05-14T09:11:59.881Z,1022.00
2019-05-14T09:13:02.557Z,1022.12
2019-05-14T09:13:59.375Z,1021.99
2019-05-14T09:14:59.075Z,1022.00
2019-05-14T09:15:58.942Z,1021.97
2019-05-14T09:16:59.934Z,1022.10
2019-05-14T09:18:03.107Z,1022.24
2019-05-14T09:18:58.912Z,1022.23
2019-05-14T09:20:06.670Z,1022.26
2019-05-14T09:20:59.893Z,1022.18
2019-05-14T09:21:59.089Z,1022.17
2019-05-14T09:22:59.566Z,1022.26
2019-05-14T09:23:58.889Z,1022.17
2019-05-14T09:25:00.125Z,1022.12
2019-05-14T09:25:59.073Z,1022.09
2019-05-14T09:26:59.381Z,1022.08
2019-05-14T09:27:58.815Z,1022.14
2019-05-14T09:28:58.815Z,1022.14
2019-05-14T09:29:59.118Z,1022.21
2019-05-14T09:30:59.733Z,1022.19
2019-05-14T09:31:59.230Z,1022.24
2019-05-14T09:32:59.430Z,1022.18
2019-05-14T09:33:58.759Z,1021.82
2019-05-14T09:34:59.072Z,1022.26
2019-05-14T09:36:13.137Z,1022.32
2019-05-14T09:36:59.725Z,1022.28
2019-05-14T09:37:59.316Z,1022.27
2019-05-14T09:38:58.707Z,1021.92
2019-05-14T09:39:58.717Z,1022.29
2019-05-14T09:41:08.186Z,1022.27
2019-05-14T09:41:59.675Z,1022.21
2019-05-14T09:42:58.890Z,1022.13
2019-05-14T09:43:58.829Z,1022.19
2019-05-14T09:44:59.569Z,1021.97
2019-05-14T09:45:58.888Z,1021.73
2019-05-14T09:46:59.362Z,1022.08
2019-05-14T09:47:58.676Z,1022.19
2019-05-14T09:48:58.978Z,1022.07
2019-05-14T09:50:14.981Z,1022.15
2019-05-14T09:50:59.600Z,1022.21
2019-05-14T09:51:58.573Z,1022.14
2019-05-14T09:52:59.338Z,1022.08
2019-05-14T09:53:58.964Z,1022.08
2019-05-14T09:54:58.693Z,1022.16
2019-05-14T09:55:58.546Z,1022.08
2019-05-14T09:56:59.170Z,1022.14
2019-05-14T09:57:58.742Z,1022.07
2019-05-14T09:58:58.843Z,1021.76
2019-05-14T09:59:58.707Z,1022.10
2019-05-14T10:00:59.259Z,1022.09
2019-05-14T10:01:58.746Z,1022.01
2019-05-14T10:02:59.627Z,1021.97
2019-05-14T10:03:59.241Z,1022.00
2019-05-14T10:04:59.835Z,1021.97
2019-05-14T10:05:59.130Z,1022.01
2019-05-14T10:06:59.237Z,1022.10
2019-05-14T10:07:59.465Z,1022.11
2019-05-14T10:08:59.016Z,1022.08
2019-05-14T10:09:58.386Z,1022.00
2019-05-14T10:11:00.314Z,1022.11
2019-05-14T10:11:58.385Z,1022.08
2019-05-14T10:13:01.419Z,1022.01
2019-05-14T10:13:59.907Z,1022.05
2019-05-14T10:14:59.163Z,1022.04
2019-05-14T10:15:58.905Z,1022.16
2019-05-14T10:16:58.408Z,1022.13
2019-05-14T10:18:00.364Z,1022.15
2019-05-14T10:18:58.302Z,1021.61
2019-05-14T10:19:59.487Z,1021.50
2019-05-14T10:20:59.006Z,1021.79
2019-05-14T10:21:58.801Z,1022.20
2019-05-14T10:22:58.599Z,1021.66
2019-05-14T10:23:58.552Z,1021.48
2019-05-14T10:24:58.344Z,1021.35
2019-05-14T10:25:58.287Z,1021.41
2019-05-14T10:26:58.630Z,1021.87
2019-05-14T10:27:59.065Z,1021.44
2019-05-14T10:28:59.040Z,1021.46
2019-05-14T10:29:58.894Z,1022.03
2019-05-14T10:30:59.943Z,1022.02
2019-05-14T10:31:59.193Z,1021.87
2019-05-14T10:33:07.315Z,1021.73
2019-05-14T10:33:59.142Z,1021.71
2019-05-14T10:34:58.971Z,1021.63
2019-05-14T10:35:58.826Z,1021.37
2019-05-14T10:36:59.053Z,1021.33
2019-05-14T10:37:59.909Z,1021.42
2019-05-14T10:38:58.854Z,1021.24
2019-05-14T10:39:58.671Z,1021.55
2019-05-14T10:40:58.550Z,1021.84
2019-05-14T10:41:58.068Z,1021.87
2019-05-14T10:42:58.064Z,1021.22
2019-05-14T10:43:58.886Z,1021.20
2019-05-14T10:44:58.740Z,1021.12
2019-05-14T10:45:58.202Z,1021.09
2019-05-14T10:46:58.335Z,1021.60
2019-05-14T10:47:58.568Z,1021.57
2019-05-14T10:48:58.689Z,1021.60
2019-05-14T10:49:58.966Z,1020.90
2019-05-14T10:51:03.313Z,1021.42
2019-05-14T10:51:58.956Z,1021.35
2019-05-14T10:52:59.423Z,1021.39
2019-05-14T10:53:59.346Z,1021.38
2019-05-14T10:54:59.061Z,1021.48
2019-05-14T10:55:58.402Z,1021.39
2019-05-14T10:56:59.143Z,1021.43
2019-05-14T10:57:58.563Z,1021.10
2019-05-14T10:58:58.373Z,1021.31
2019-05-14T10:59:59.143Z,1021.41
2019-05-14T11:00:58.928Z,1021.36
2019-05-14T11:01:57.840Z,1021.36
2019-05-14T11:02:57.850Z,1021.42
2019-05-14T11:03:57.832Z,1021.35
2019-05-14T11:04:58.679Z,1021.26
2019-05-14T11:05:58.837Z,1021.29
2019-05-14T11:06:57.792Z,1021.33
2019-05-14T11:07:58.673Z,1021.24
2019-05-14T11:08:57.773Z,1021.22
2019-05-14T11:09:57.759Z,1021.14
2019-05-14T11:11:03.764Z,1021.23
2019-05-14T11:11:58.734Z,1021.27
2019-05-14T11:12:59.293Z,1021.30
2019-05-14T11:13:57.714Z,1021.34
2019-05-14T11:14:57.704Z,1021.32
2019-05-14T11:15:59.537Z,1021.27
2019-05-14T11:16:59.154Z,1020.86
2019-05-14T11:17:57.695Z,1021.27
2019-05-14T11:18:57.812Z,1021.21
2019-05-14T11:19:58.673Z,1021.14
2019-05-14T11:21:17.970Z,1021.19
2019-05-14T11:21:58.630Z,1021.24
2019-05-14T11:22:58.455Z,1021.19
2019-05-14T11:23:58.524Z,1021.07
2019-05-14T11:24:59.148Z,1021.04
2019-05-14T11:25:58.135Z,1021.05
2019-05-14T11:26:59.137Z,1021.09
2019-05-14T11:27:58.682Z,1021.10
2019-05-14T11:28:58.521Z,1021.12
2019-05-14T11:29:58.654Z,1020.53
2019-05-14T11:30:57.540Z,1020.43
2019-05-14T11:31:57.529Z,1020.62
2019-05-14T11:32:58.366Z,1020.95
2019-05-14T11:33:59.034Z,1020.86
2019-05-14T11:34:59.132Z,1020.42
2019-05-14T11:35:58.504Z,1020.83
2019-05-14T11:36:58.925Z,1020.49
2019-05-14T11:37:58.875Z,1020.94
2019-05-14T11:39:02.816Z,1020.37
2019-05-14T11:39:58.440Z,1020.36
2019-05-14T11:40:58.776Z,1020.78
2019-05-14T11:41:59.105Z,1020.28
2019-05-14T11:42:59.173Z,1020.31
2019-05-14T11:43:59.391Z,1020.24
2019-05-14T11:44:58.210Z,1020.76
2019-05-14T11:45:59.389Z,1020.68
2019-05-14T11:46:59.236Z,1020.77
2019-05-14T11:47:58.441Z,1020.65
2019-05-14T11:48:59.422Z,1020.66
2019-05-14T11:49:59.195Z,1020.70
2019-05-14T11:50:59.297Z,1020.65
2019-05-14T11:52:07.311Z,1020.63
2019-05-14T11:52:58.606Z,1020.60
2019-05-14T11:53:58.706Z,1020.64
2019-05-14T11:54:58.475Z,1020.67
2019-05-14T11:55:58.724Z,1020.58
2019-05-14T11:56:58.938Z,1020.65
2019-05-14T11:57:58.314Z,1020.66
2019-05-14T11:58:59.066Z,1020.54
2019-05-14T11:59:58.122Z,1020.51
2019-05-14T12:00:58.432Z,1020.51
2019-05-14T12:01:59.323Z,1020.59
2019-05-14T12:02:58.607Z,1020.39
2019-05-14T12:03:59.767Z,1020.10
2019-05-14T12:04:57.190Z,1020.44